createdAt,value
2019-05-13T00:01:00.273Z,88.30
2019-05-13T00:03:33.370Z,88.30
2019-05-13T00:06:13.286Z,88.50
2019-05-13T00:08:44.324Z,88.70
2019-05-13T00:11:17.301Z,88.20
2019-05-13T00:13:50.483Z,88.10
2019-05-13T00:16:23.528Z,88.40
2019-05-13T00:18:56.896Z,88.10
2019-05-13T00:21:27.143Z,88.30
2019-05-13T00:24:00.120Z,88.10
2019-05-13T00:26:33.752Z,88.30
2019-05-13T00:29:05.725Z,88.60
2019-05-13T00:31:36.996Z,88.50
2019-05-13T00:34:09.370Z,88.40
2019-05-13T00:36:44.522Z,88.30
2019-05-13T00:39:15.304Z,88.60
2019-05-13T00:41:45.021Z,88.40
2019-05-13T00:44:16.607Z,88.40
2019-05-13T00:46:53.537Z,88.40
2019-05-13T00:49:23.883Z,88.40
2019-05-13T00:51:53.914Z,88.60
2019-05-13T00:54:28.622Z,88.70
2019-05-13T00:57:04.439Z,88.50
2019-05-13T00:59:35.927Z,88.50
2019-05-13T01:02:08.156Z,88.60
2019-05-13T01:04:44.154Z,88.60
2019-05-13T01:07:25.890Z,88.60
2019-05-13T01:09:49.003Z,88.50
2019-05-13T01:12:19.889Z,88.50
2019-05-13T01:14:53.423Z,88.70
2019-05-13T01:17:26.901Z,88.50
2019-05-13T01:19:57.217Z,88.40
2019-05-13T01:22:30.773Z,88.60
2019-05-13T01:25:05.492Z,88.60
2019-05-13T01:27:36.587Z,88.60
2019-05-13T01:30:13.335Z,88.80
2019-05-13T01:32:51.076Z,88.60
2019-05-13T01:35:23.716Z,88.60
2019-05-13T01:37:56.078Z,88.50
2019-05-13T01:40:27.065Z,88.70
2019-05-13T01:43:03.579Z,88.50
2019-05-13T01:45:36.537Z,88.50
2019-05-13T01:48:08.197Z,88.80
2019-05-13T01:50:43.779Z,88.50
2019-05-13T01:53:16.591Z,88.50
2019-05-13T01:55:46.749Z,88.40
2019-05-13T01:58:18.126Z,88.50
2019-05-13T02:00:51.646Z,88.50
2019-05-13T02:03:24.574Z,88.40
2019-05-13T02:05:55.036Z,88.70
2019-05-13T02:08:25.930Z,88.80
2019-05-13T02:10:58.309Z,88.60
2019-05-13T02:13:28.335Z,89.00
2019-05-13T02:15:58.383Z,89.00
2019-05-13T02:18:33.937Z,89.00
2019-05-13T02:21:05.200Z,89.20
2019-05-13T02:23:38.068Z,89.10
2019-05-13T02:26:13.580Z,89.00
2019-05-13T02:28:45.248Z,88.80
2019-05-13T02:31:29.578Z,89.00
2019-05-13T02:33:53.145Z,89.20
2019-05-13T02:36:24.525Z,89.20
2019-05-13T02:38:54.456Z,88.90
2019-05-13T02:41:29.119Z,89.00
2019-05-13T02:44:04.993Z,89.30
2019-05-13T02:46:36.299Z,89.30
2019-05-13T02:49:12.161Z,89.50
2019-05-13T02:51:43.788Z,89.20
2019-05-13T02:54:14.849Z,89.00
2019-05-13T02:56:45.769Z,89.10
2019-05-13T02:59:18.455Z,89.40
2019-05-13T03:01:53.017Z,89.20
2019-05-13T03:04:23.330Z,89.40
2019-05-13T03:06:58.937Z,89.50
2019-05-13T03:09:32.490Z,89.70
2019-05-13T03:12:06.161Z,90.00
2019-05-13T03:14:39.030Z,89.90
2019-05-13T03:17:22.422Z,90.00
2019-05-13T03:19:55.220Z,89.80
2019-05-13T03:22:25.305Z,89.90
2019-05-13T03:24:55.270Z,89.90
2019-05-13T03:27:33.741Z,89.60
2019-05-13T03:30:05.055Z,89.80
2019-05-13T03:35:09.306Z,90.00
2019-05-13T03:37:42.885Z,90.10
2019-05-13T03:40:17.808Z,90.20
2019-05-13T03:42:53.430Z,90.30
2019-05-13T03:45:32.430Z,90.30
2019-05-13T03:48:04.119Z,90.10
2019-05-13T03:50:36.243Z,90.00
2019-05-13T03:53:08.878Z,90.10
2019-05-13T03:55:39.010Z,90.20
2019-05-13T03:58:13.084Z,90.00
2019-05-13T04:00:46.972Z,90.10
2019-05-13T04:03:16.682Z,90.20
2019-05-13T04:05:47.936Z,89.80
2019-05-13T04:08:22.830Z,89.50
2019-05-13T04:10:52.966Z,89.70
2019-05-13T04:13:25.825Z,89.80
2019-05-13T04:16:04.062Z,90.00
2019-05-13T04:18:34.568Z,89.80
2019-05-13T04:21:07.061Z,90.00
2019-05-13T04:23:38.005Z,90.00
2019-05-13T04:26:09.046Z,90.10
2019-05-13T04:28:43.122Z,90.20
2019-05-13T04:31:14.701Z,89.90
2019-05-13T04:33:52.712Z,90.00
2019-05-13T04:36:23.383Z,89.90
2019-05-13T04:38:53.929Z,89.80
2019-05-13T04:41:24.815Z,89.70
2019-05-13T04:43:58.467Z,89.40
2019-05-13T04:46:32.717Z,89.40
2019-05-13T04:49:05.881Z,89.40
2019-05-13T04:51:36.105Z,89.40
2019-05-13T04:54:07.605Z,88.80
2019-05-13T04:56:41.950Z,88.80
2019-05-13T04:59:12.968Z,88.80
2019-05-13T05:02:13.508Z,88.80
2019-05-13T05:05:04.407Z,88.70
2019-05-13T05:07:37.232Z,88.40
2019-05-13T05:10:38.148Z,87.70
2019-05-13T05:13:28.576Z,87.90
2019-05-13T05:16:13.542Z,88.10
2019-05-13T05:18:52.780Z,87.80
2019-05-13T05:21:29.590Z,87.00
2019-05-13T05:24:23.203Z,87.20
2019-05-13T05:27:21.341Z,87.40
2019-05-13T05:30:13.601Z,86.80
2019-05-13T05:33:02.691Z,87.40
2019-05-13T05:35:58.474Z,87.40
2019-05-13T05:39:01.794Z,86.80
2019-05-13T05:41:33.864Z,86.60
2019-05-13T05:44:07.846Z,85.70
2019-05-13T05:46:42.793Z,85.60
2019-05-13T05:49:12.962Z,86.10
2019-05-13T05:51:43.884Z,86.10
2019-05-13T05:54:15.010Z,85.90
2019-05-13T05:56:46.427Z,85.50
2019-05-13T05:59:17.998Z,85.30
2019-05-13T06:01:52.587Z,84.70
2019-05-13T06:04:24.248Z,84.10
2019-05-13T06:06:58.293Z,83.60
2019-05-13T06:09:32.068Z,83.80
2019-05-13T06:12:03.002Z,84.10
2019-05-13T06:14:36.211Z,83.60
2019-05-13T06:17:11.367Z,83.00
2019-05-13T06:19:45.472Z,83.60
2019-05-13T06:22:15.699Z,82.30
2019-05-13T06:24:48.020Z,82.20
2019-05-13T06:27:21.351Z,81.70
2019-05-13T06:29:53.022Z,81.60
2019-05-13T06:32:27.177Z,81.40
2019-05-13T06:34:58.188Z,80.10
2019-05-13T06:37:27.407Z,79.00
2019-05-13T06:40:02.042Z,79.30
2019-05-13T06:42:33.254Z,78.60
2019-05-13T06:45:02.629Z,78.90
2019-05-13T06:47:36.976Z,79.60
2019-05-13T06:50:12.308Z,79.40
2019-05-13T06:52:43.678Z,78.90
2019-05-13T06:55:14.097Z,78.80
2019-05-13T06:57:44.100Z,79.30
2019-05-13T07:00:18.058Z,78.80
2019-05-13T07:02:51.491Z,78.70
2019-05-13T07:05:22.806Z,79.20
2019-05-13T07:07:55.260Z,79.80
2019-05-13T07:10:26.141Z,79.60
2019-05-13T07:12:57.149Z,79.00
2019-05-13T07:15:26.979Z,78.40
2019-05-13T07:17:56.865Z,78.00
2019-05-13T07:20:32.182Z,78.40
2019-05-13T07:23:04.821Z,76.10
2019-05-13T07:25:34.960Z,76.90
2019-05-13T07:28:07.468Z,76.40
2019-05-13T07:30:44.545Z,76.50
2019-05-13T07:33:15.150Z,77.00
2019-05-13T07:35:57.147Z,76.00
2019-05-13T07:38:23.391Z,76.40
2019-05-13T07:41:01.465Z,76.50
2019-05-13T07:43:32.201Z,76.60
2019-05-13T07:46:08.148Z,76.50
2019-05-13T07:48:41.619Z,76.10
2019-05-13T07:51:12.679Z,74.80
2019-05-13T07:53:42.780Z,73.80
2019-05-13T07:56:12.871Z,73.70
2019-05-13T07:58:44.532Z,73.80
2019-05-13T08:01:14.596Z,71.70
2019-05-13T08:03:46.403Z,70.90
2019-05-13T08:06:18.386Z,69.30
2019-05-13T08:08:48.387Z,71.40
2019-05-13T08:13:55.769Z,69.50
2019-05-13T08:16:28.842Z,68.80
2019-05-13T08:19:01.870Z,68.90
2019-05-13T08:21:32.678Z,68.80
2019-05-13T08:24:03.848Z,69.00
2019-05-13T08:26:38.104Z,68.50
2019-05-13T08:29:11.422Z,66.80
2019-05-13T08:31:45.196Z,65.40
2019-05-13T08:34:17.593Z,65.40
2019-05-13T08:36:47.626Z,66.20
2019-05-13T08:39:17.679Z,65.40
2019-05-13T08:41:48.759Z,67.30
2019-05-13T08:44:22.007Z,64.70
2019-05-13T08:46:55.102Z,65.20
2019-05-13T08:49:25.775Z,64.80
2019-05-13T08:51:57.017Z,65.30
2019-05-13T08:54:32.782Z,65.30
2019-05-13T08:57:05.774Z,65.20
2019-05-13T08:59:38.423Z,64.90
2019-05-13T09:02:08.314Z,65.00
2019-05-13T09:07:15.467Z,64.00
2019-05-13T09:09:51.255Z,63.60
2019-05-13T09:12:32.156Z,63.40
2019-05-13T09:14:55.486Z,63.30
2019-05-13T09:17:27.398Z,62.90
2019-05-13T09:20:02.530Z,62.80
2019-05-13T09:22:34.401Z,63.00
2019-05-13T09:25:05.442Z,63.50
2019-05-13T09:27:38.327Z,61.90
2019-05-13T09:30:11.782Z,61.30
2019-05-13T09:32:42.519Z,62.20
2019-05-13T09:35:14.232Z,61.60
2019-05-13T09:37:47.355Z,63.80
2019-05-13T09:40:25.243Z,61.70
2019-05-13T09:42:59.397Z,61.50
2019-05-13T09:45:32.200Z,61.70
2019-05-13T09:48:03.779Z,62.60
2019-05-13T09:50:36.444Z,61.70
2019-05-13T09:53:11.515Z,62.50
2019-05-13T09:55:42.275Z,61.60
2019-05-13T09:58:13.454Z,61.40
2019-05-13T10:00:47.088Z,62.60
2019-05-13T10:03:18.499Z,61.80
2019-05-13T10:05:51.758Z,61.50
2019-05-13T10:08:22.257Z,61.90
2019-05-13T10:10:52.780Z,62.60
2019-05-13T10:13:23.475Z,63.30
2019-05-13T10:15:54.568Z,63.50
2019-05-13T10:18:25.665Z,62.20
2019-05-13T10:21:04.969Z,62.00
2019-05-13T10:23:38.074Z,60.10
2019-05-13T10:26:13.510Z,62.30
2019-05-13T10:28:43.092Z,62.90
2019-05-13T10:31:16.582Z,61.60
2019-05-13T10:33:47.734Z,62.00
2019-05-13T10:36:18.333Z,62.60
2019-05-13T10:38:51.902Z,62.30
2019-05-13T10:41:22.350Z,61.80
2019-05-13T10:43:53.701Z,63.30
2019-05-13T10:46:24.737Z,62.80
2019-05-13T10:48:58.129Z,61.90
2019-05-13T10:51:32.625Z,61.80
2019-05-13T10:54:02.579Z,63.20
2019-05-13T10:56:33.951Z,63.20
2019-05-13T10:59:06.541Z,62.80
2019-05-13T11:01:38.522Z,64.30
2019-05-13T11:04:13.336Z,62.40
2019-05-13T11:06:44.153Z,63.30
2019-05-13T11:09:15.615Z,63.10
2019-05-13T11:11:47.109Z,62.80
2019-05-13T11:14:18.355Z,63.40
2019-05-13T11:16:52.335Z,63.20
2019-05-13T11:19:26.466Z,62.80
2019-05-13T11:21:58.381Z,63.10
2019-05-13T11:24:33.142Z,63.20
2019-05-13T11:27:04.942Z,63.70
2019-05-13T11:29:37.476Z,63.30
2019-05-13T11:32:07.167Z,64.20
2019-05-13T11:34:43.055Z,64.30
2019-05-13T11:37:13.055Z,64.00
2019-05-13T11:39:43.085Z,64.10
2019-05-13T11:42:13.878Z,64.10
2019-05-13T11:44:45.749Z,65.00
2019-05-13T11:47:18.355Z,64.30
2019-05-13T11:49:52.407Z,64.60
2019-05-13T11:52:24.151Z,64.10
2019-05-13T11:54:54.135Z,64.30
2019-05-13T11:57:25.488Z,64.40
2019-05-13T11:59:58.588Z,64.50
2019-05-13T12:02:32.016Z,64.00
2019-05-13T12:05:03.876Z,63.90
2019-05-13T12:07:33.791Z,63.90
2019-05-13T12:10:05.356Z,65.00
2019-05-13T12:12:38.057Z,64.40
2019-05-13T12:15:27.974Z,63.60
2019-05-13T12:17:43.188Z,63.90
2019-05-13T12:20:15.498Z,63.10
2019-05-13T12:22:46.559Z,63.00
2019-05-13T12:25:17.943Z,63.90
2019-05-13T12:27:51.954Z,64.20
2019-05-13T12:30:22.791Z,64.10
2019-05-13T12:35:27.908Z,64.50
2019-05-13T12:40:33.809Z,62.70
2019-05-13T12:43:12.631Z,62.20
2019-05-13T12:45:43.278Z,61.00
2019-05-13T12:48:15.085Z,62.10
2019-05-13T12:50:46.272Z,61.60
2019-05-13T12:53:16.211Z,61.80
2019-05-13T12:55:52.698Z,61.80
2019-05-13T12:58:19.058Z,62.30
2019-05-13T13:00:53.393Z,62.40
2019-05-13T13:03:26.525Z,63.30
2019-05-13T13:11:22.967Z,63.00
2019-05-13T13:13:59.972Z,62.60
2019-05-13T13:16:34.555Z,62.70
2019-05-13T13:19:07.276Z,63.30
2019-05-13T13:21:39.059Z,62.20
2019-05-13T13:24:12.372Z,62.00
2019-05-13T13:26:44.211Z,63.00
2019-05-13T13:29:18.620Z,63.20
2019-05-13T13:31:54.794Z,62.50
2019-05-13T13:34:25.808Z,63.30
2019-05-13T13:36:57.283Z,63.10
2019-05-13T13:39:29.866Z,63.50
2019-05-13T13:42:05.677Z,62.90
2019-05-13T13:44:38.395Z,59.50
2019-05-13T13:47:14.950Z,57.80
2019-05-13T13:49:44.165Z,56.90
2019-05-13T13:52:16.377Z,57.90
2019-05-13T13:54:58.170Z,59.40
2019-05-13T13:57:25.617Z,60.30
2019-05-13T14:00:20.776Z,60.60
2019-05-13T14:02:36.867Z,60.90
2019-05-13T14:05:12.454Z,61.50
2019-05-13T14:07:43.474Z,61.60
2019-05-13T14:10:15.264Z,62.30
2019-05-13T14:12:52.465Z,63.20
2019-05-13T14:15:24.639Z,62.90
2019-05-13T14:17:54.335Z,63.40
2019-05-13T14:20:25.689Z,63.10
2019-05-13T14:22:58.062Z,62.50
2019-05-13T14:25:27.773Z,61.70
2019-05-13T14:27:59.415Z,61.10
2019-05-13T14:30:31.289Z,61.30
2019-05-13T14:33:03.123Z,61.60
2019-05-13T14:35:34.232Z,62.00
2019-05-13T14:38:05.211Z,61.80
2019-05-13T14:40:37.720Z,62.30
2019-05-13T14:43:07.752Z,61.70
2019-05-13T14:45:39.037Z,62.70
2019-05-13T14:48:12.419Z,63.50
2019-05-13T14:50:44.454Z,63.60
2019-05-13T14:53:15.909Z,63.40
2019-05-13T14:55:47.272Z,64.30
2019-05-13T14:58:21.740Z,61.80
2019-05-13T15:01:10.818Z,61.40
2019-05-13T15:03:24.601Z,62.60
2019-05-13T15:05:55.860Z,62.00
2019-05-13T15:08:32.503Z,61.50
2019-05-13T15:11:04.421Z,62.20
2019-05-13T15:13:34.435Z,61.90
2019-05-13T15:16:05.659Z,62.60
2019-05-13T15:18:37.025Z,62.60
2019-05-13T15:21:06.346Z,62.70
2019-05-13T15:23:37.357Z,62.70
2019-05-13T15:26:08.904Z,62.90
2019-05-13T15:28:42.155Z,62.10
2019-05-13T15:31:15.015Z,61.50
2019-05-13T15:33:46.820Z,61.60
2019-05-13T15:36:17.997Z,59.90
2019-05-13T15:38:52.161Z,59.70
2019-05-13T15:41:23.597Z,60.40
2019-05-13T15:44:03.410Z,60.80
2019-05-13T15:46:33.963Z,60.80
2019-05-13T15:49:04.572Z,60.60
2019-05-13T15:51:35.677Z,58.60
2019-05-13T15:54:15.314Z,58.50
2019-05-13T15:56:43.234Z,59.80
2019-05-13T15:59:16.199Z,59.40
2019-05-13T16:01:46.286Z,60.70
2019-05-13T16:04:21.386Z,58.70
2019-05-13T16:06:54.637Z,58.40
2019-05-13T16:09:25.966Z,58.70
2019-05-13T16:11:57.906Z,59.00
2019-05-13T16:14:32.769Z,58.90
2019-05-13T16:17:05.582Z,59.10
2019-05-13T16:19:41.860Z,58.10
2019-05-13T16:22:13.780Z,58.90
2019-05-13T16:24:46.662Z,60.20
2019-05-13T16:27:19.136Z,59.80
2019-05-13T16:29:51.630Z,60.70
2019-05-13T16:32:26.549Z,60.60
2019-05-13T16:34:58.020Z,61.40
2019-05-13T16:37:31.409Z,61.00
2019-05-13T16:40:03.507Z,61.20
2019-05-13T16:42:33.749Z,61.10
2019-05-13T16:45:06.374Z,61.50
2019-05-13T16:47:55.842Z,61.70
2019-05-13T16:50:15.199Z,61.60
2019-05-13T16:52:47.822Z,61.60
2019-05-13T16:55:25.541Z,62.00
2019-05-13T16:58:02.412Z,62.00
2019-05-13T17:00:36.563Z,63.00
2019-05-13T17:03:11.525Z,63.10
2019-05-13T17:05:42.703Z,62.90
2019-05-13T17:08:16.715Z,62.50
2019-05-13T17:10:47.737Z,62.80
2019-05-13T17:13:22.145Z,62.60
2019-05-13T17:15:53.795Z,63.50
2019-05-13T17:18:25.285Z,63.40
2019-05-13T17:20:56.285Z,64.00
2019-05-13T17:23:27.362Z,63.70
2019-05-13T17:26:02.549Z,63.70
2019-05-13T17:28:34.362Z,63.70
2019-05-13T17:31:08.192Z,64.70
2019-05-13T17:33:42.770Z,65.10
2019-05-13T17:36:15.521Z,65.30
2019-05-13T17:38:46.503Z,65.70
2019-05-13T17:41:21.234Z,67.10
2019-05-13T17:43:51.897Z,66.60
2019-05-13T17:46:24.382Z,65.90
2019-05-13T17:48:57.163Z,65.50
2019-05-13T17:51:30.141Z,66.50
2019-05-13T17:54:05.208Z,67.40
2019-05-13T17:56:36.414Z,68.10
2019-05-13T17:59:11.182Z,68.50
2019-05-13T18:01:41.908Z,68.90
2019-05-13T18:04:13.399Z,69.60
2019-05-13T18:06:44.998Z,69.70
2019-05-13T18:09:17.490Z,70.10
2019-05-13T18:11:50.272Z,68.10
2019-05-13T18:14:22.146Z,68.00
2019-05-13T18:16:55.035Z,69.30
2019-05-13T18:19:28.641Z,69.30
2019-05-13T18:22:02.288Z,69.90
2019-05-13T18:24:37.181Z,70.00
2019-05-13T18:27:11.551Z,70.80
2019-05-13T18:29:44.242Z,73.00
2019-05-13T18:32:17.232Z,73.30
2019-05-13T18:34:49.253Z,73.00
2019-05-13T18:37:22.117Z,73.60
2019-05-13T18:39:54.875Z,74.80
2019-05-13T18:42:25.816Z,76.30
2019-05-13T18:44:56.937Z,76.90
2019-05-13T18:47:31.749Z,76.40
2019-05-13T18:50:03.804Z,72.00
2019-05-13T18:52:34.848Z,72.10
2019-05-13T18:55:08.625Z,72.20
2019-05-13T18:57:42.406Z,72.20
2019-05-13T19:00:12.450Z,70.90
2019-05-13T19:02:45.773Z,71.00
2019-05-13T19:05:17.459Z,71.00
2019-05-13T19:07:51.245Z,71.30
2019-05-13T19:10:21.999Z,71.30
2019-05-13T19:12:57.850Z,71.20
2019-05-13T19:15:27.745Z,71.50
2019-05-13T19:18:03.021Z,71.60
2019-05-13T19:20:35.536Z,72.00
2019-05-13T19:23:11.634Z,72.30
2019-05-13T19:25:44.303Z,73.00
2019-05-13T19:30:46.469Z,73.40
2019-05-13T19:33:19.036Z,73.50
2019-05-13T19:35:51.800Z,73.90
2019-05-13T19:38:23.326Z,73.90
2019-05-13T19:40:54.643Z,73.70
2019-05-13T19:43:25.816Z,74.00
2019-05-13T19:45:55.856Z,74.10
2019-05-13T19:48:27.126Z,74.00
2019-05-13T19:50:58.081Z,73.50
2019-05-13T19:53:28.076Z,74.10
2019-05-13T19:56:01.464Z,74.60
2019-05-13T19:58:35.333Z,74.70
2019-05-13T20:01:11.716Z,75.10
2019-05-13T20:03:42.955Z,75.40
2019-05-13T20:06:12.754Z,75.30
2019-05-13T20:08:47.338Z,75.50
2019-05-13T20:11:19.117Z,76.30
2019-05-13T20:13:52.570Z,76.60
2019-05-13T20:16:22.650Z,77.10
2019-05-13T20:18:57.948Z,77.20
2019-05-13T20:21:28.995Z,77.80
2019-05-13T20:24:05.362Z,78.20
2019-05-13T20:26:41.278Z,78.20
2019-05-13T20:29:12.522Z,78.40
2019-05-13T20:31:46.756Z,79.80
2019-05-13T20:34:18.683Z,80.10
2019-05-13T20:36:51.437Z,79.80
2019-05-13T20:39:22.494Z,79.70
2019-05-13T20:41:55.787Z,79.60
2019-05-13T20:44:26.635Z,79.40
2019-05-13T20:46:57.812Z,78.90
2019-05-13T20:49:30.999Z,78.30
2019-05-13T20:52:01.484Z,77.90
2019-05-13T20:54:32.218Z,77.60
2019-05-13T20:57:02.202Z,77.70
2019-05-13T20:59:32.224Z,77.20
2019-05-13T21:02:03.415Z,76.50
2019-05-13T21:04:36.965Z,76.20
2019-05-13T21:07:13.640Z,76.30
2019-05-13T21:09:47.811Z,76.90
2019-05-13T21:12:22.055Z,77.00
2019-05-13T21:14:52.489Z,77.10
2019-05-13T21:17:25.248Z,76.90
2019-05-13T21:19:59.888Z,76.50
2019-05-13T21:22:31.732Z,76.90
2019-05-13T21:25:02.200Z,76.50
2019-05-13T21:27:36.489Z,76.20
2019-05-13T21:30:11.879Z,76.30
2019-05-13T21:32:44.479Z,76.50
2019-05-13T21:35:17.996Z,76.90
2019-05-13T21:37:52.501Z,77.00
2019-05-13T21:40:25.852Z,77.40
2019-05-13T21:42:57.266Z,76.80
2019-05-13T21:45:32.151Z,77.20
2019-05-13T21:48:03.263Z,77.00
2019-05-13T21:50:37.392Z,76.10
2019-05-13T21:53:08.920Z,75.40
2019-05-13T21:55:41.400Z,76.00
2019-05-13T21:58:14.099Z,76.50
2019-05-13T22:00:45.641Z,77.00
2019-05-13T22:03:18.249Z,76.30
2019-05-13T22:05:51.690Z,76.00
2019-05-13T22:08:22.950Z,76.60
2019-05-13T22:10:52.932Z,75.90
2019-05-13T22:13:24.365Z,76.30
2019-05-13T22:15:56.829Z,77.10
2019-05-13T22:18:31.447Z,76.40
2019-05-13T22:21:01.627Z,76.00
2019-05-13T22:23:35.507Z,77.00
2019-05-13T22:26:08.605Z,77.00
2019-05-13T22:28:41.616Z,77.30
2019-05-13T22:31:15.138Z,77.30
2019-05-13T22:33:47.590Z,77.20
2019-05-13T22:36:21.152Z,77.40
2019-05-13T22:38:52.502Z,77.40
2019-05-13T22:41:22.464Z,77.10
2019-05-13T22:43:58.649Z,77.30
2019-05-13T22:46:28.998Z,77.70
2019-05-13T22:49:01.186Z,77.90
2019-05-13T22:51:35.811Z,77.70
2019-05-13T22:54:08.147Z,77.90
2019-05-13T22:56:38.061Z,78.20
2019-05-13T22:59:12.232Z,78.40
2019-05-13T23:01:47.230Z,78.20
2019-05-13T23:04:20.920Z,78.50
2019-05-13T23:06:52.190Z,78.50
2019-05-13T23:09:24.767Z,78.40
2019-05-13T23:11:59.055Z,78.50
2019-05-13T23:14:31.038Z,78.70
2019-05-13T23:17:03.683Z,79.00
2019-05-13T23:19:37.717Z,78.80
2019-05-13T23:22:14.499Z,78.70
2019-05-13T23:24:45.865Z,78.90
2019-05-13T23:27:21.865Z,78.90
2019-05-13T23:29:53.304Z,78.90
2019-05-13T23:32:26.856Z,79.00
2019-05-13T23:35:01.946Z,79.20
2019-05-13T23:37:34.101Z,79.20
2019-05-13T23:40:06.689Z,79.70
2019-05-13T23:42:40.232Z,79.90
2019-05-13T23:45:13.980Z,80.00
2019-05-13T23:47:50.912Z,80.20
2019-05-13T23:50:24.523Z,80.50
2019-05-13T23:52:58.778Z,80.60
2019-05-13T23:55:32.219Z,80.60
2019-05-13T23:58:02.007Z,80.90
